createdAt,value
2023-02-22T00:00:53.733Z,98295.09
2023-02-22T00:03:25.589Z,98293.38
2023-02-22T00:05:58.428Z,98290.81
2023-02-22T00:08:30.390Z,98288.28
2023-02-22T00:11:01.435Z,98294.22
2023-02-22T00:13:29.356Z,98293.38
2023-02-22T00:15:57.463Z,98287.44
2023-02-22T00:18:27.869Z,98280.66
2023-02-22T00:21:01.844Z,98280.66
2023-02-22T00:23:30.594Z,98285.72
2023-02-22T00:25:58.873Z,98276.38
2023-02-22T00:28:25.812Z,98284.91
2023-02-22T00:30:52.723Z,98272.13
2023-02-22T00:33:19.334Z,98274.69
2023-02-22T00:35:46.269Z,98270.41
2023-02-22T00:38:14.976Z,98267.88
2023-02-22T00:40:41.590Z,98265.31
2023-02-22T00:43:08.257Z,98270.41
2023-02-22T00:45:36.572Z,98269.59
2023-02-22T00:48:05.127Z,98263.66
2023-02-22T00:50:32.332Z,98267.03
2023-02-22T00:53:00.869Z,98262.78
2023-02-22T00:55:30.016Z,98272.09
2023-02-22T00:57:57.518Z,98265.31
2023-02-22T01:00:29.283Z,98263.59
2023-02-22T01:02:56.892Z,98259.34
2023-02-22T01:05:30.152Z,98256.78
2023-02-22T01:07:58.066Z,98259.31
2023-02-22T01:10:26.939Z,98250.81
2023-02-22T01:12:55.089Z,98253.38
2023-02-22T01:15:23.994Z,98252.53
2023-02-22T01:17:51.797Z,98243.19
2023-02-22T01:20:18.826Z,98249.13
2023-02-22T01:22:48.043Z,98250.81
2023-02-22T01:25:23.752Z,98242.34
2023-02-22T01:27:50.960Z,98241.50
2023-02-22T01:30:22.101Z,98247.44
2023-02-22T01:32:51.111Z,98244.88
2023-02-22T01:35:20.293Z,98247.44
2023-02-22T01:37:46.723Z,98247.44
2023-02-22T01:40:37.931Z,98245.78
2023-02-22T01:43:15.649Z,98237.25
2023-02-22T01:45:47.657Z,98242.34
2023-02-22T01:48:45.912Z,98236.44
2023-02-22T01:51:19.518Z,98238.13
2023-02-22T01:53:52.189Z,98235.59
2023-02-22T01:56:20.205Z,98233.88
2023-02-22T01:58:50.685Z,98230.50
2023-02-22T02:01:19.936Z,98229.63
2023-02-22T02:03:49.038Z,98229.63
2023-02-22T02:06:16.745Z,98223.72
2023-02-22T02:08:53.433Z,98224.56
2023-02-22T02:11:23.011Z,98226.25
2023-02-22T02:13:51.808Z,98224.56
2023-02-22T02:16:18.892Z,98224.56
2023-02-22T02:18:45.371Z,98222.88
2023-02-22T02:21:20.595Z,98220.34
2023-02-22T02:24:20.768Z,98223.72
2023-02-22T02:27:11.775Z,98216.06
2023-02-22T02:29:56.322Z,98215.22
2023-02-22T02:32:44.052Z,98214.38
2023-02-22T02:35:51.677Z,98214.38
2023-02-22T02:38:36.962Z,98212.66
2023-02-22T02:41:13.864Z,98205.03
2023-02-22T02:44:02.184Z,98196.53
2023-02-22T02:46:39.250Z,98203.31
2023-02-22T02:49:13.667Z,98202.47
2023-02-22T02:51:44.316Z,98200.75
2023-02-22T02:54:13.307Z,98203.28
2023-02-22T02:56:41.276Z,98198.19
2023-02-22T02:59:43.644Z,98195.66
2023-02-22T03:02:48.234Z,98199.03
2023-02-22T03:05:49.893Z,98192.22
2023-02-22T03:08:34.558Z,98190.56
2023-02-22T03:11:15.068Z,98177.84
2023-02-22T03:14:19.482Z,98179.53
2023-02-22T03:16:50.194Z,98183.78
2023-02-22T03:19:25.792Z,98184.59
2023-02-22T03:22:05.958Z,98184.59
2023-02-22T03:24:42.433Z,98175.28
2023-02-22T03:27:17.335Z,98176.13
2023-02-22T03:29:45.672Z,98177.78
2023-02-22T03:32:20.243Z,98182.84
2023-02-22T03:34:56.737Z,98180.28
2023-02-22T03:37:38.385Z,98178.56
2023-02-22T03:40:16.867Z,98177.72
2023-02-22T03:42:48.742Z,98166.66
2023-02-22T03:45:19.334Z,98167.50
2023-02-22T03:47:53.226Z,98164.94
2023-02-22T03:50:26.318Z,98169.19
2023-02-22T03:52:53.708Z,98168.31
2023-02-22T03:55:20.190Z,98164.94
2023-02-22T03:57:54.203Z,98168.31
2023-02-22T04:00:24.754Z,98167.47
2023-02-22T04:02:51.302Z,98171.69
2023-02-22T04:05:17.944Z,98172.53
2023-02-22T04:07:44.692Z,98175.94
2023-02-22T04:10:12.734Z,98173.38
2023-02-22T04:12:39.527Z,98176.72
2023-02-22T04:15:08.857Z,98174.97
2023-02-22T04:17:35.289Z,98174.97
2023-02-22T04:20:01.755Z,98174.13
2023-02-22T04:22:28.173Z,98180.91
2023-02-22T04:24:54.717Z,98177.47
2023-02-22T04:27:21.164Z,98175.75
2023-02-22T04:29:47.616Z,98174.06
2023-02-22T04:32:14.182Z,98168.97
2023-02-22T04:34:40.611Z,98170.66
2023-02-22T04:37:07.713Z,98169.88
2023-02-22T04:39:34.263Z,98164.88
2023-02-22T04:42:00.695Z,98164.00
2023-02-22T04:44:27.162Z,98164.00
2023-02-22T04:46:53.661Z,98166.53
2023-02-22T04:49:20.094Z,98164.00
2023-02-22T04:51:46.577Z,98157.19
2023-02-22T04:54:13.698Z,98157.19
2023-02-22T04:56:40.130Z,98155.50
2023-02-22T04:59:06.621Z,98151.25
2023-02-22T05:01:34.855Z,98155.44
2023-02-22T05:04:08.040Z,98145.28
2023-02-22T05:06:36.163Z,98151.25
2023-02-22T05:09:03.958Z,98145.28
2023-02-22T05:11:30.414Z,98154.56
2023-02-22T05:13:56.889Z,98142.72
2023-02-22T05:16:23.424Z,98150.31
2023-02-22T05:18:49.901Z,98146.91
2023-02-22T05:21:16.652Z,98141.78
2023-02-22T05:23:43.315Z,98145.16
2023-02-22T05:26:11.675Z,98146.81
2023-02-22T05:28:38.815Z,98142.56
2023-02-22T05:31:05.569Z,98142.56
2023-02-22T05:33:32.005Z,98133.25
2023-02-22T05:35:58.434Z,98134.09
2023-02-22T05:38:24.907Z,98138.31
2023-02-22T05:40:51.722Z,98134.09
2023-02-22T05:43:18.215Z,98136.63
2023-02-22T05:45:44.648Z,98131.56
2023-02-22T05:48:12.893Z,98134.09
2023-02-22T05:50:39.298Z,98126.50
2023-02-22T05:53:05.682Z,98130.69
2023-02-22T05:55:32.171Z,98127.28
2023-02-22T05:57:58.585Z,98125.56
2023-02-22T06:00:28.300Z,98127.25
2023-02-22T06:03:02.970Z,98126.44
2023-02-22T06:05:30.126Z,98128.97
2023-02-22T06:07:58.146Z,98124.72
2023-02-22T06:10:25.475Z,98128.09
2023-02-22T06:12:52.337Z,98133.16
2023-02-22T06:15:20.732Z,98121.34
2023-02-22T06:17:48.004Z,98119.69
2023-02-22T06:20:17.299Z,98121.41
2023-02-22T06:22:44.693Z,98123.94
2023-02-22T06:25:15.910Z,98123.94
2023-02-22T06:27:42.496Z,98129.03
2023-02-22T06:30:13.128Z,98134.16
2023-02-22T06:32:39.854Z,98129.94
2023-02-22T06:35:06.779Z,98134.19
2023-02-22T06:37:33.184Z,98135.94
2023-02-22T06:40:04.931Z,98136.00
2023-02-22T06:42:31.934Z,98132.59
2023-02-22T06:44:58.333Z,98133.47
2023-02-22T06:47:24.763Z,98137.75
2023-02-22T06:49:55.583Z,98141.16
2023-02-22T06:52:23.217Z,98143.75
2023-02-22T06:54:50.652Z,98141.25
2023-02-22T06:57:17.885Z,98139.56
2023-02-22T06:59:44.833Z,98142.09
2023-02-22T07:02:12.245Z,98141.34
2023-02-22T07:04:38.739Z,98142.25
2023-02-22T07:07:05.516Z,98142.25
2023-02-22T07:09:32.042Z,98138.06
2023-02-22T07:11:58.684Z,98138.06
2023-02-22T07:14:25.175Z,98138.94
2023-02-22T07:16:51.619Z,98135.53
2023-02-22T07:19:18.024Z,98133.81
2023-02-22T07:21:44.574Z,98126.16
2023-02-22T07:24:11.007Z,98123.50
2023-02-22T07:26:41.479Z,98121.72
2023-02-22T07:29:08.287Z,98125.94
2023-02-22T07:31:38.486Z,98122.44
2023-02-22T07:34:04.984Z,98126.59
2023-02-22T07:36:31.396Z,98123.03
2023-02-22T07:38:57.823Z,98124.63
2023-02-22T07:41:24.981Z,98122.09
2023-02-22T07:43:51.370Z,98123.75
2023-02-22T07:46:17.763Z,98118.59
2023-02-22T07:48:44.138Z,98116.03
2023-02-22T07:51:11.247Z,98115.19
2023-02-22T07:53:37.713Z,98118.59
2023-02-22T07:56:05.626Z,98119.34
2023-02-22T07:58:33.005Z,98122.56
2023-02-22T08:01:02.049Z,98123.38
2023-02-22T08:03:34.260Z,98125.00
2023-02-22T08:06:00.733Z,98120.63
2023-02-22T08:08:27.977Z,98121.53
2023-02-22T08:10:54.917Z,98118.16
2023-02-22T08:13:22.283Z,98115.53
2023-02-22T08:15:52.046Z,98115.44
2023-02-22T08:18:20.281Z,98118.03
2023-02-22T08:20:49.270Z,98120.50
2023-02-22T08:23:17.077Z,98123.72
2023-02-22T08:25:43.819Z,98130.28
2023-02-22T08:28:13.254Z,98130.13
2023-02-22T08:30:40.835Z,98132.47
2023-02-22T08:33:07.426Z,98133.31
2023-02-22T08:35:34.116Z,98128.81
2023-02-22T08:38:05.892Z,98126.88
2023-02-22T08:40:35.370Z,98124.03
2023-02-22T08:43:02.295Z,98127.22
2023-02-22T08:45:29.090Z,98124.50
2023-02-22T08:47:55.533Z,98125.22
2023-02-22T08:50:28.538Z,98123.44
2023-02-22T08:52:58.636Z,98120.09
2023-02-22T08:55:27.972Z,98119.34
2023-02-22T08:57:54.396Z,98117.44
2023-02-22T09:00:24.730Z,98113.72
2023-02-22T09:02:54.251Z,98112.47
2023-02-22T09:05:20.764Z,98117.13
2023-02-22T09:07:47.910Z,98118.00
2023-02-22T09:10:16.832Z,98118.72
2023-02-22T09:12:43.270Z,98109.38
2023-02-22T09:15:10.007Z,98105.56
2023-02-22T09:17:37.444Z,98107.94
2023-02-22T09:20:08.902Z,98115.81
2023-02-22T09:22:35.336Z,98103.59
2023-02-22T09:25:11.348Z,98105.06
2023-02-22T09:27:43.505Z,98101.91
2023-02-22T09:30:27.132Z,98100.88
2023-02-22T09:32:56.266Z,98096.13
2023-02-22T09:35:27.055Z,98107.81
2023-02-22T09:37:58.468Z,98099.38
2023-02-22T09:40:29.695Z,98091.72
2023-02-22T09:43:35.694Z,98097.69
2023-02-22T09:46:19.142Z,98097.00
2023-02-22T09:49:06.024Z,98089.97
2023-02-22T09:51:58.783Z,98086.75
2023-02-22T09:54:34.297Z,98083.56
2023-02-22T09:57:04.915Z,98088.81
2023-02-22T09:59:40.795Z,98080.31
2023-02-22T10:02:38.510Z,98086.94
2023-02-22T10:05:17.818Z,98084.06
2023-02-22T10:07:52.146Z,98080.44
2023-02-22T10:10:20.777Z,98080.72
2023-02-22T10:12:58.896Z,98079.31
2023-02-22T10:16:02.560Z,98077.84
2023-02-22T10:18:56.688Z,98070.97
2023-02-22T10:21:47.412Z,98071.38
2023-02-22T10:24:39.962Z,98074.34
2023-02-22T10:27:16.053Z,98071.16
2023-02-22T10:29:47.784Z,98070.69
2023-02-22T10:32:31.945Z,98063.16
2023-02-22T10:35:05.463Z,98056.63
2023-02-22T10:37:34.354Z,98067.38
2023-02-22T10:40:12.862Z,98061.44
2023-02-22T10:42:39.399Z,98057.34
2023-02-22T10:45:18.925Z,98057.69
2023-02-22T10:47:46.580Z,98054.91
2023-02-22T10:50:15.271Z,98048.94
2023-02-22T10:52:41.769Z,98053.97
2023-02-22T10:55:15.859Z,98060.09
2023-02-22T10:57:46.101Z,98046.03
2023-02-22T11:00:20.853Z,98057.31
2023-02-22T11:02:56.388Z,98048.06
2023-02-22T11:05:41.247Z,98049.63
2023-02-22T11:08:23.664Z,98040.63
2023-02-22T11:10:56.130Z,98042.22
2023-02-22T11:13:33.524Z,98030.56
2023-02-22T11:16:16.574Z,98036.38
2023-02-22T11:18:43.308Z,98030.03
2023-02-22T11:21:12.334Z,98029.28
2023-02-22T11:23:44.338Z,98024.03
2023-02-22T11:26:15.318Z,98025.78
2023-02-22T11:28:49.317Z,98019.06
2023-02-22T11:31:22.693Z,98017.59
2023-02-22T11:34:00.900Z,98010.34
2023-02-22T11:36:40.889Z,98005.31
2023-02-22T11:39:21.184Z,98004.69
2023-02-22T11:41:50.716Z,97998.50
2023-02-22T11:44:28.000Z,97997.56
2023-02-22T11:46:56.408Z,97998.09
2023-02-22T11:49:34.066Z,97991.38
2023-02-22T11:52:09.629Z,97989.09
2023-02-22T11:55:09.836Z,97990.03
2023-02-22T11:57:46.627Z,97982.94
2023-02-22T12:00:33.411Z,97982.06
2023-02-22T12:03:02.589Z,97976.56
2023-02-22T12:05:59.731Z,97978.41
2023-02-22T12:08:34.978Z,97974.81
2023-02-22T12:11:18.280Z,97970.56
2023-02-22T12:14:01.800Z,97970.63
2023-02-22T12:16:44.213Z,97959.03
2023-02-22T12:19:29.431Z,97955.63
2023-02-22T12:22:02.302Z,97958.28
2023-02-22T12:24:38.007Z,97946.78
2023-02-22T12:27:11.766Z,97951.09
2023-02-22T12:29:53.263Z,97946.78
2023-02-22T12:32:35.092Z,97946.63
2023-02-22T12:35:11.184Z,97951.81
2023-02-22T12:37:53.181Z,97947.84
2023-02-22T12:40:41.472Z,97942.84
2023-02-22T12:43:18.150Z,97948.59
2023-02-22T12:45:54.771Z,97940.56
2023-02-22T12:48:40.186Z,97941.63
2023-02-22T12:51:19.334Z,97934.97
2023-02-22T12:53:54.946Z,97930.00
2023-02-22T12:56:43.838Z,97924.81
2023-02-22T12:59:19.354Z,97926.84
2023-02-22T13:01:51.927Z,97921.06
2023-02-22T13:04:21.373Z,97917.25
2023-02-22T13:06:57.233Z,97921.72
2023-02-22T13:10:01.618Z,97917.88
2023-02-22T13:12:27.984Z,97920.28
2023-02-22T13:15:28.179Z,97910.72
2023-02-22T13:18:19.342Z,97912.22
2023-02-22T13:21:09.515Z,97905.94
2023-02-22T13:24:05.441Z,97910.72
2023-02-22T13:26:41.864Z,97903.19
2023-02-22T13:29:15.044Z,97898.25
2023-02-22T13:32:17.844Z,97900.59
2023-02-22T13:34:48.619Z,97896.16
2023-02-22T13:37:17.655Z,97896.47
2023-02-22T13:40:06.609Z,97893.56
2023-02-22T13:42:59.813Z,97892.28
2023-02-22T13:45:46.136Z,97888.44
2023-02-22T13:48:31.367Z,97893.22
2023-02-22T13:50:57.740Z,97878.06
2023-02-22T13:53:32.944Z,97888.78
2023-02-22T13:56:00.833Z,97892.09
2023-02-22T13:58:27.753Z,97890.28
2023-02-22T14:00:59.634Z,97892.75
2023-02-22T14:03:40.981Z,97884.94
2023-02-22T14:06:37.975Z,97882.78
2023-02-22T14:09:19.151Z,97874.16
2023-02-22T14:11:54.214Z,97879.34
2023-02-22T14:14:20.932Z,97878.25
2023-02-22T14:17:36.585Z,97875.25
2023-02-22T14:20:29.949Z,97874.56
2023-02-22T14:22:58.984Z,97872.81
2023-02-22T14:25:36.803Z,97877.06
2023-02-22T14:28:06.591Z,97870.88
2023-02-22T14:30:37.498Z,97871.47
2023-02-22T14:33:44.170Z,97870.44
2023-02-22T14:36:11.227Z,97867.00
2023-02-22T14:38:37.961Z,97870.69
2023-02-22T14:41:05.728Z,97872.78
2023-02-22T14:43:36.510Z,97867.38
2023-02-22T14:46:06.586Z,97864.19
2023-02-22T14:48:39.524Z,97863.41
2023-02-22T14:51:32.530Z,97857.50
2023-02-22T14:54:25.622Z,97857.81
2023-02-22T14:57:12.045Z,97862.38
2023-02-22T14:59:52.605Z,97864.41
2023-02-22T15:02:22.787Z,97859.22
2023-02-22T15:04:56.087Z,97864.41
2023-02-22T15:07:32.022Z,97862.09
2023-02-22T15:10:07.550Z,97859.50
2023-02-22T15:12:34.051Z,97862.41
2023-02-22T15:15:22.002Z,97863.66
2023-02-22T15:17:56.638Z,97857.63
2023-02-22T15:20:25.209Z,97858.78
2023-02-22T15:22:57.527Z,97854.81
2023-02-22T15:25:27.786Z,97860.91
2023-02-22T15:28:01.323Z,97849.94
2023-02-22T15:30:32.528Z,97855.28
2023-02-22T15:33:14.176Z,97852.31
2023-02-22T15:35:40.807Z,97849.31
2023-02-22T15:38:17.600Z,97851.91
2023-02-22T15:40:45.558Z,97851.47
2023-02-22T15:43:24.343Z,97850.09
2023-02-22T15:45:51.934Z,97852.19
2023-02-22T15:48:18.840Z,97848.88
2023-02-22T15:51:06.801Z,97846.56
2023-02-22T15:53:40.142Z,97841.53
2023-02-22T15:56:11.262Z,97846.00
2023-02-22T15:58:39.067Z,97841.25
2023-02-22T16:01:12.473Z,97839.78
2023-02-22T16:03:45.964Z,97843.50
2023-02-22T16:06:28.656Z,97846.16
2023-02-22T16:08:59.025Z,97836.78
2023-02-22T16:11:43.171Z,97841.34
2023-02-22T16:14:24.943Z,97835.69
2023-02-22T16:17:12.514Z,97832.63
2023-02-22T16:19:42.761Z,97831.91
2023-02-22T16:22:49.230Z,97837.16
2023-02-22T16:25:28.991Z,97832.50
2023-02-22T16:27:59.992Z,97834.84
2023-02-22T16:30:34.733Z,97836.94
2023-02-22T16:33:05.478Z,97837.34
2023-02-22T16:35:35.308Z,97843.06
2023-02-22T16:38:04.545Z,97845.28
2023-02-22T16:40:35.016Z,97844.81
2023-02-22T16:43:13.923Z,97843.69
2023-02-22T16:45:42.498Z,97844.28
2023-02-22T16:48:22.336Z,97841.22
2023-02-22T16:50:51.442Z,97843.41
2023-02-22T16:53:21.248Z,97844.69
2023-02-22T16:55:48.566Z,97844.16
2023-02-22T16:58:17.352Z,97842.72
2023-02-22T17:00:44.008Z,97839.66
2023-02-22T17:03:15.190Z,97840.63
2023-02-22T17:05:42.148Z,97841.69
2023-02-22T17:08:08.560Z,97841.81
2023-02-22T17:10:35.643Z,97837.72
2023-02-22T17:13:16.151Z,97841.47
2023-02-22T17:15:43.152Z,97845.06
2023-02-22T17:18:16.242Z,97848.75
2023-02-22T17:20:45.648Z,97848.13
2023-02-22T17:23:12.419Z,97854.16
2023-02-22T17:25:54.103Z,97847.41
2023-02-22T17:28:21.284Z,97852.56
2023-02-22T17:30:49.020Z,97849.59
2023-02-22T17:33:18.595Z,97849.91
2023-02-22T17:35:47.064Z,97854.41
2023-02-22T17:38:18.379Z,97856.22
2023-02-22T17:40:51.989Z,97846.28
2023-02-22T17:43:19.379Z,97859.25
2023-02-22T17:45:46.259Z,97849.03
2023-02-22T17:48:14.963Z,97858.47
2023-02-22T17:50:43.595Z,97850.84
2023-02-22T17:53:13.407Z,97851.84
2023-02-22T17:55:41.297Z,97850.25
2023-02-22T17:58:14.530Z,97846.91
2023-02-22T18:00:50.898Z,97853.81
2023-02-22T18:03:25.293Z,97853.94
2023-02-22T18:05:56.312Z,97849.81
2023-02-22T18:08:24.474Z,97855.03
2023-02-22T18:10:56.165Z,97853.50
2023-02-22T18:13:24.818Z,97850.22
2023-02-22T18:15:51.438Z,97855.53
2023-02-22T18:18:18.848Z,97856.41
2023-02-22T18:20:47.185Z,97858.31
2023-02-22T18:23:16.220Z,97855.91
2023-02-22T18:26:07.763Z,97866.19
2023-02-22T18:28:36.784Z,97858.53
2023-02-22T18:31:08.714Z,97857.78
2023-02-22T18:33:38.085Z,97865.38
2023-02-22T18:36:04.865Z,97864.66
2023-02-22T18:38:31.521Z,97859.56
2023-02-22T18:41:06.092Z,97864.81
2023-02-22T18:43:36.536Z,97864.88
2023-02-22T18:46:16.261Z,97865.84
2023-02-22T18:48:43.918Z,97865.84
2023-02-22T18:51:13.615Z,97857.38
2023-02-22T18:53:46.635Z,97861.69
2023-02-22T18:56:21.573Z,97863.50
2023-02-22T18:58:52.525Z,97860.31
2023-02-22T19:01:19.300Z,97859.59
2023-02-22T19:03:48.677Z,97858.88
2023-02-22T19:06:16.769Z,97852.94
2023-02-22T19:08:44.783Z,97858.13
2023-02-22T19:11:17.657Z,97856.38
2023-02-22T19:13:48.947Z,97856.63
2023-02-22T19:16:19.757Z,97850.09
2023-02-22T19:18:47.342Z,97853.66
2023-02-22T19:21:14.621Z,97850.50
2023-02-22T19:23:45.552Z,97856.53
2023-02-22T19:26:21.084Z,97852.44
2023-02-22T19:28:48.343Z,97855.75
2023-02-22T19:31:18.384Z,97855.75
2023-02-22T19:33:46.335Z,97863.47
2023-02-22T19:36:14.969Z,97860.09
2023-02-22T19:38:41.900Z,97849.81
2023-02-22T19:41:12.344Z,97860.19
2023-02-22T19:43:39.258Z,97849.97
2023-02-22T19:46:07.295Z,97860.41
2023-02-22T19:48:34.491Z,97858.84
2023-02-22T19:51:09.206Z,97859.03
2023-02-22T19:53:39.012Z,97859.22
2023-02-22T19:56:09.487Z,97871.44
2023-02-22T19:58:41.096Z,97862.16
2023-02-22T20:01:23.254Z,97868.16
2023-02-22T20:03:54.628Z,97863.03
2023-02-22T20:06:23.111Z,97857.06
2023-02-22T20:08:51.042Z,97864.88
2023-02-22T20:11:17.784Z,97864.97
2023-02-22T20:13:44.916Z,97868.44
2023-02-22T20:16:15.527Z,97865.03
2023-02-22T20:18:46.721Z,97871.13
2023-02-22T20:21:20.327Z,97874.69
2023-02-22T20:23:47.257Z,97875.59
2023-02-22T20:26:17.186Z,97871.28
2023-02-22T20:28:43.628Z,97860.16
2023-02-22T20:31:13.698Z,97868.59
2023-02-22T20:33:41.731Z,97865.94
2023-02-22T20:36:10.457Z,97871.00
2023-02-22T20:38:38.173Z,97876.75
2023-02-22T20:41:09.591Z,97873.91
2023-02-22T20:43:36.047Z,97875.34
2023-02-22T20:46:04.182Z,97878.44
2023-02-22T20:48:31.046Z,97874.66
2023-02-22T20:51:04.276Z,97876.84
2023-02-22T20:53:30.687Z,97873.94
2023-02-22T20:55:59.145Z,97877.06
2023-02-22T20:58:25.957Z,97877.59
2023-02-22T21:00:52.395Z,97879.09
2023-02-22T21:03:18.799Z,97871.06
2023-02-22T21:05:46.577Z,97875.94
2023-02-22T21:08:15.500Z,97876.22
2023-02-22T21:10:43.580Z,97871.03
2023-02-22T21:13:11.481Z,97869.34
2023-02-22T21:15:43.356Z,97867.69
2023-02-22T21:18:10.953Z,97872.81
2023-02-22T21:20:43.223Z,97867.84
2023-02-22T21:23:11.298Z,97875.72
2023-02-22T21:25:38.247Z,97866.63
2023-02-22T21:28:05.395Z,97869.31
2023-02-22T21:30:32.867Z,97871.78
2023-02-22T21:32:59.372Z,97877.97
2023-02-22T21:35:26.097Z,97875.59
2023-02-22T21:37:52.565Z,97871.31
2023-02-22T21:40:19.174Z,97873.28
2023-02-22T21:42:49.385Z,97877.66
2023-02-22T21:45:18.415Z,97868.28
2023-02-22T21:47:48.862Z,97879.44
2023-02-22T21:50:17.477Z,97872.72
2023-02-22T21:52:44.599Z,97872.25
2023-02-22T21:55:11.877Z,97875.09
2023-02-22T21:57:38.305Z,97878.66
2023-02-22T22:00:18.230Z,97877.78
2023-02-22T22:02:48.307Z,97881.94
2023-02-22T22:05:17.258Z,97882.63
2023-02-22T22:07:44.682Z,97883.13
2023-02-22T22:10:16.951Z,97879.16
2023-02-22T22:12:46.139Z,97880.19
2023-02-22T22:15:16.503Z,97882.22
2023-02-22T22:17:43.946Z,97881.47
2023-02-22T22:20:14.695Z,97886.75
2023-02-22T22:22:43.465Z,97886.88
2023-02-22T22:25:11.866Z,97884.38
2023-02-22T22:27:40.127Z,97881.09
2023-02-22T22:30:07.930Z,97882.88
2023-02-22T22:32:34.981Z,97884.59
2023-02-22T22:35:01.826Z,97886.34
2023-02-22T22:37:28.661Z,97888.09
2023-02-22T22:39:55.480Z,97887.25
2023-02-22T22:42:23.781Z,97893.25
2023-02-22T22:44:50.510Z,97887.91
2023-02-22T22:47:20.617Z,97889.69
2023-02-22T22:49:47.704Z,97893.88
2023-02-22T22:52:16.424Z,97890.53
2023-02-22T22:54:43.496Z,97887.91
2023-02-22T22:57:11.216Z,97892.09
2023-02-22T22:59:37.675Z,97892.97
2023-02-22T23:02:09.698Z,97892.91
2023-02-22T23:04:37.982Z,97892.06
2023-02-22T23:07:06.552Z,97892.09
2023-02-22T23:09:34.924Z,97887.00
2023-02-22T23:12:09.705Z,97886.13
2023-02-22T23:14:44.177Z,97886.97
2023-02-22T23:17:16.194Z,97892.00
2023-02-22T23:19:47.541Z,97886.78
2023-02-22T23:22:14.358Z,97884.22
2023-02-22T23:24:41.252Z,97887.66
2023-02-22T23:27:07.738Z,97892.78
2023-02-22T23:29:38.177Z,97886.78
2023-02-22T23:32:05.977Z,97895.31
2023-02-22T23:34:33.605Z,97891.13
2023-02-22T23:37:00.062Z,97886.00
2023-02-22T23:39:27.237Z,97888.56
2023-02-22T23:41:56.526Z,97887.66
2023-02-22T23:44:22.996Z,97892.00
2023-02-22T23:46:54.980Z,97886.91
2023-02-22T23:49:26.621Z,97885.19
2023-02-22T23:51:53.579Z,97888.66
2023-02-22T23:54:21.084Z,97894.66
2023-02-22T23:56:56.502Z,97887.03
2023-02-22T23:59:24.743Z,97893.06
